sensor_id;sensor_type;location;lat;lon;timestamp;temperature;humidity
22249;DHT22;67538;52.180;5.646;2023-03-01T00:01:14;-1.90;99.90
22249;DHT22;67538;52.180;5.646;2023-03-01T00:03:41;-1.90;99.90
22249;DHT22;67538;52.180;5.646;2023-03-01T00:06:09;-2.00;99.90
22249;DHT22;67538;52.180;5.646;2023-03-01T00:08:37;-2.00;99.90
22249;DHT22;67538;52.180;5.646;2023-03-01T00:11:06;-2.10;99.90
22249;DHT22;67538;52.180;5.646;2023-03-01T00:13:34;-2.10;99.90
22249;DHT22;67538;52.180;5.646;2023-03-01T00:16:04;-2.10;99.90
22249;DHT22;67538;52.180;5.646;2023-03-01T00:18:31;-2.10;99.90
22249;DHT22;67538;52.180;5.646;2023-03-01T00:20:58;-2.20;99.90
22249;DHT22;67538;52.180;5.646;2023-03-01T00:23:26;-2.20;99.90
22249;DHT22;67538;52.180;5.646;2023-03-01T00:25:53;-2.10;99.90
22249;DHT22;67538;52.180;5.646;2023-03-01T00:28:20;-2.10;99.90
22249;DHT22;67538;52.180;5.646;2023-03-01T00:30:47;-2.10;99.90
22249;DHT22;67538;52.180;5.646;2023-03-01T00:33:16;-2.10;99.90
22249;DHT22;67538;52.180;5.646;2023-03-01T00:35:43;-2.10;99.90
22249;DHT22;67538;52.180;5.646;2023-03-01T00:38:11;-2.10;99.90
22249;DHT22;67538;52.180;5.646;2023-03-01T00:40:38;-2.10;99.90
22249;DHT22;67538;52.180;5.646;2023-03-01T00:43:05;-2.10;99.90
22249;DHT22;67538;52.180;5.646;2023-03-01T00:45:33;-2.20;99.90
22249;DHT22;67538;52.180;5.646;2023-03-01T00:48:00;-2.20;99.90
22249;DHT22;67538;52.180;5.646;2023-03-01T00:50:28;-2.20;99.90
22249;DHT22;67538;52.180;5.646;2023-03-01T00:52:55;-2.20;99.90
22249;DHT22;67538;52.180;5.646;2023-03-01T00:55:23;-2.30;99.90
22249;DHT22;67538;52.180;5.646;2023-03-01T00:57:50;-2.30;99.90
22249;DHT22;67538;52.180;5.646;2023-03-01T01:00:18;-2.30;99.90
22249;DHT22;67538;52.180;5.646;2023-03-01T01:02:46;-2.30;99.90
22249;DHT22;67538;52.180;5.646;2023-03-01T01:05:13;-2.30;99.90
22249;DHT22;67538;52.180;5.646;2023-03-01T01:07:42;-2.30;99.90
22249;DHT22;67538;52.180;5.646;2023-03-01T01:10:10;-2.30;99.90
22249;DHT22;67538;52.180;5.646;2023-03-01T01:12:43;-2.30;99.90
22249;DHT22;67538;52.180;5.646;2023-03-01T01:15:10;-2.20;99.90
22249;DHT22;67538;52.180;5.646;2023-03-01T01:17:39;-2.20;99.90
22249;DHT22;67538;52.180;5.646;2023-03-01T01:20:08;-2.10;99.90
22249;DHT22;67538;52.180;5.646;2023-03-01T01:22:35;-2.10;99.90
22249;DHT22;67538;52.180;5.646;2023-03-01T01:25:04;-2.10;99.90
22249;DHT22;67538;52.180;5.646;2023-03-01T01:27:31;-2.20;99.90
22249;DHT22;67538;52.180;5.646;2023-03-01T01:29:59;-2.20;99.90
22249;DHT22;67538;52.180;5.646;2023-03-01T01:32:26;-2.30;99.90
22249;DHT22;67538;52.180;5.646;2023-03-01T01:34:53;-2.30;99.90
22249;DHT22;67538;52.180;5.646;2023-03-01T01:37:20;-2.30;99.90
22249;DHT22;67538;52.180;5.646;2023-03-01T01:39:47;-2.40;99.90
22249;DHT22;67538;52.180;5.646;2023-03-01T01:42:17;-2.40;99.90
22249;DHT22;67538;52.180;5.646;2023-03-01T01:44:46;-2.40;99.90
22249;DHT22;67538;52.180;5.646;2023-03-01T01:47:16;-2.40;99.90
22249;DHT22;67538;52.180;5.646;2023-03-01T01:49:46;-2.50;99.90
22249;DHT22;67538;52.180;5.646;2023-03-01T01:52:17;-2.60;99.90
22249;DHT22;67538;52.180;5.646;2023-03-01T01:54:49;-2.60;99.90
22249;DHT22;67538;52.180;5.646;2023-03-01T01:57:23;-2.60;99.90
22249;DHT22;67538;52.180;5.646;2023-03-01T01:59:54;-2.60;99.90
22249;DHT22;67538;52.180;5.646;2023-03-01T02:02:23;-2.60;99.90
22249;DHT22;67538;52.180;5.646;2023-03-01T02:04:55;-2.60;99.90
22249;DHT22;67538;52.180;5.646;2023-03-01T02:07:26;-2.60;99.90
22249;DHT22;67538;52.180;5.646;2023-03-01T02:09:53;-2.60;99.90
22249;DHT22;67538;52.180;5.646;2023-03-01T02:12:23;-2.60;99.90
22249;DHT22;67538;52.180;5.646;2023-03-01T02:14:51;-2.60;99.90
22249;DHT22;67538;52.180;5.646;2023-03-01T02:17:18;-2.60;99.90
22249;DHT22;67538;52.180;5.646;2023-03-01T02:19:57;-2.60;99.90
22249;DHT22;67538;52.180;5.646;2023-03-01T02:22:28;-2.60;99.90
22249;DHT22;67538;52.180;5.646;2023-03-01T02:25:05;-2.60;99.90
22249;DHT22;67538;52.180;5.646;2023-03-01T02:27:40;-2.70;99.90
22249;DHT22;67538;52.180;5.646;2023-03-01T02:30:12;-2.60;99.90
22249;DHT22;67538;52.180;5.646;2023-03-01T02:32:40;-2.60;99.90
22249;DHT22;67538;52.180;5.646;2023-03-01T02:35:09;-2.60;99.90
22249;DHT22;67538;52.180;5.646;2023-03-01T02:37:38;-2.60;99.90
22249;DHT22;67538;52.180;5.646;2023-03-01T02:40:08;-2.60;99.90
22249;DHT22;67538;52.180;5.646;2023-03-01T02:42:43;-2.50;99.90
22249;DHT22;67538;52.180;5.646;2023-03-01T02:45:14;-2.50;99.90
22249;DHT22;67538;52.180;5.646;2023-03-01T02:47:41;-2.50;99.90
22249;DHT22;67538;52.180;5.646;2023-03-01T02:50:22;-2.50;99.90
22249;DHT22;67538;52.180;5.646;2023-03-01T02:52:56;-2.50;99.90
22249;DHT22;67538;52.180;5.646;2023-03-01T02:55:25;-2.50;99.90
22249;DHT22;67538;52.180;5.646;2023-03-01T02:57:54;-2.60;99.90
22249;DHT22;67538;52.180;5.646;2023-03-01T03:00:26;-2.60;99.90
22249;DHT22;67538;52.180;5.646;2023-03-01T03:02:55;-2.60;99.90
22249;DHT22;67538;52.180;5.646;2023-03-01T03:05:25;-2.60;99.90
22249;DHT22;67538;52.180;5.646;2023-03-01T03:07:52;-2.60;99.90
22249;DHT22;67538;52.180;5.646;2023-03-01T03:10:24;-2.60;99.90
22249;DHT22;67538;52.180;5.646;2023-03-01T03:12:53;-2.60;99.90
22249;DHT22;67538;52.180;5.646;2023-03-01T03:15:21;-2.60;99.90
22249;DHT22;67538;52.180;5.646;2023-03-01T03:17:51;-2.60;99.90
22249;DHT22;67538;52.180;5.646;2023-03-01T03:20:20;-2.60;99.90
22249;DHT22;67538;52.180;5.646;2023-03-01T03:22:49;-2.60;99.90
22249;DHT22;67538;52.180;5.646;2023-03-01T03:25:17;-2.70;99.90
22249;DHT22;67538;52.180;5.646;2023-03-01T03:27:47;-2.80;99.90
22249;DHT22;67538;52.180;5.646;2023-03-01T03:30:16;-2.70;99.90
22249;DHT22;67538;52.180;5.646;2023-03-01T03:32:45;-2.70;99.90
22249;DHT22;67538;52.180;5.646;2023-03-01T03:35:20;-2.70;99.90
22249;DHT22;67538;52.180;5.646;2023-03-01T03:37:47;-2.70;99.90
22249;DHT22;67538;52.180;5.646;2023-03-01T03:40:33;-2.80;99.90
22249;DHT22;67538;52.180;5.646;2023-03-01T03:43:00;-2.80;99.90
22249;DHT22;67538;52.180;5.646;2023-03-01T03:45:28;-2.80;99.90
22249;DHT22;67538;52.180;5.646;2023-03-01T03:47:55;-2.80;99.90
22249;DHT22;67538;52.180;5.646;2023-03-01T03:50:23;-2.80;99.90
22249;DHT22;67538;52.180;5.646;2023-03-01T03:52:50;-2.80;99.90
22249;DHT22;67538;52.180;5.646;2023-03-01T03:55:17;-2.80;99.90
22249;DHT22;67538;52.180;5.646;2023-03-01T03:57:46;-2.80;99.90
22249;DHT22;67538;52.180;5.646;2023-03-01T04:00:18;-2.80;99.90
22249;DHT22;67538;52.180;5.646;2023-03-01T04:02:47;-2.80;99.90
22249;DHT22;67538;52.180;5.646;2023-03-01T04:05:16;-2.80;99.90
22249;DHT22;67538;52.180;5.646;2023-03-01T04:07:45;-2.80;99.90
22249;DHT22;67538;52.180;5.646;2023-03-01T04:10:14;-2.80;99.90
22249;DHT22;67538;52.180;5.646;2023-03-01T04:12:41;-2.80;99.90
22249;DHT22;67538;52.180;5.646;2023-03-01T04:15:10;-2.90;99.90
22249;DHT22;67538;52.180;5.646;2023-03-01T04:17:39;-2.90;99.90
22249;DHT22;67538;52.180;5.646;2023-03-01T04:20:08;-2.90;99.90
22249;DHT22;67538;52.180;5.646;2023-03-01T04:22:37;-2.80;99.90
22249;DHT22;67538;52.180;5.646;2023-03-01T04:25:06;-2.90;99.90
22249;DHT22;67538;52.180;5.646;2023-03-01T04:27:33;-2.90;99.90
22249;DHT22;67538;52.180;5.646;2023-03-01T04:30:00;-2.90;99.90
22249;DHT22;67538;52.180;5.646;2023-03-01T04:32:27;-2.90;99.90
22249;DHT22;67538;52.180;5.646;2023-03-01T04:34:54;-2.90;99.90
22249;DHT22;67538;52.180;5.646;2023-03-01T04:37:21;-3.00;99.90
22249;DHT22;67538;52.180;5.646;2023-03-01T04:39:49;-3.00;99.90
22249;DHT22;67538;52.180;5.646;2023-03-01T04:42:18;-3.00;99.90
22249;DHT22;67538;52.180;5.646;2023-03-01T04:44:45;-3.00;99.90
22249;DHT22;67538;52.180;5.646;2023-03-01T04:47:13;-3.00;99.90
22249;DHT22;67538;52.180;5.646;2023-03-01T04:49:40;-3.00;99.90
22249;DHT22;67538;52.180;5.646;2023-03-01T04:52:07;-3.00;99.90
22249;DHT22;67538;52.180;5.646;2023-03-01T04:54:35;-3.10;99.90
22249;DHT22;67538;52.180;5.646;2023-03-01T04:57:03;-3.10;99.90
22249;DHT22;67538;52.180;5.646;2023-03-01T04:59:31;-3.10;99.90
22249;DHT22;67538;52.180;5.646;2023-03-01T05:01:58;-3.10;99.90
22249;DHT22;67538;52.180;5.646;2023-03-01T05:04:26;-3.10;99.90
22249;DHT22;67538;52.180;5.646;2023-03-01T05:06:53;-3.10;99.90
22249;DHT22;67538;52.180;5.646;2023-03-01T05:09:21;-3.10;99.90
22249;DHT22;67538;52.180;5.646;2023-03-01T05:11:48;-3.20;99.90
22249;DHT22;67538;52.180;5.646;2023-03-01T05:14:17;-3.20;99.90
22249;DHT22;67538;52.180;5.646;2023-03-01T05:16:45;-3.20;99.90
22249;DHT22;67538;52.180;5.646;2023-03-01T05:19:12;-3.20;99.90
22249;DHT22;67538;52.180;5.646;2023-03-01T05:21:41;-3.20;99.90
22249;DHT22;67538;52.180;5.646;2023-03-01T05:24:22;-3.20;99.90
22249;DHT22;67538;52.180;5.646;2023-03-01T05:26:49;-3.30;99.90
22249;DHT22;67538;52.180;5.646;2023-03-01T05:29:17;-3.20;99.90
22249;DHT22;67538;52.180;5.646;2023-03-01T05:31:52;-3.20;99.90
22249;DHT22;67538;52.180;5.646;2023-03-01T05:34:23;-3.20;99.90
22249;DHT22;67538;52.180;5.646;2023-03-01T05:36:51;-3.30;99.90
22249;DHT22;67538;52.180;5.646;2023-03-01T05:39:19;-3.30;99.90
22249;DHT22;67538;52.180;5.646;2023-03-01T05:41:48;-3.30;99.90
22249;DHT22;67538;52.180;5.646;2023-03-01T05:44:15;-3.30;99.90
22249;DHT22;67538;52.180;5.646;2023-03-01T05:46:42;-3.40;99.90
22249;DHT22;67538;52.180;5.646;2023-03-01T05:49:12;-3.40;99.90
22249;DHT22;67538;52.180;5.646;2023-03-01T05:51:40;-3.40;99.90
22249;DHT22;67538;52.180;5.646;2023-03-01T05:54:07;-3.40;99.90
22249;DHT22;67538;52.180;5.646;2023-03-01T05:56:35;-3.50;99.90
22249;DHT22;67538;52.180;5.646;2023-03-01T05:59:02;-3.60;99.90
22249;DHT22;67538;52.180;5.646;2023-03-01T06:01:30;-3.60;99.90
22249;DHT22;67538;52.180;5.646;2023-03-01T06:03:58;-3.60;99.90
22249;DHT22;67538;52.180;5.646;2023-03-01T06:06:26;-3.70;99.90
22249;DHT22;67538;52.180;5.646;2023-03-01T06:08:54;-3.60;99.90
22249;DHT22;67538;52.180;5.646;2023-03-01T06:11:21;-3.70;99.90
22249;DHT22;67538;52.180;5.646;2023-03-01T06:13:48;-3.70;99.90
22249;DHT22;67538;52.180;5.646;2023-03-01T06:16:15;-3.70;99.90
22249;DHT22;67538;52.180;5.646;2023-03-01T06:18:42;-3.70;99.90
22249;DHT22;67538;52.180;5.646;2023-03-01T06:21:09;-3.80;99.90
22249;DHT22;67538;52.180;5.646;2023-03-01T06:23:38;-3.70;99.90
22249;DHT22;67538;52.180;5.646;2023-03-01T06:26:05;-3.60;99.90
22249;DHT22;67538;52.180;5.646;2023-03-01T06:28:33;-3.60;99.90
22249;DHT22;67538;52.180;5.646;2023-03-01T06:31:00;-3.60;99.90
22249;DHT22;67538;52.180;5.646;2023-03-01T06:33:27;-3.60;99.90
22249;DHT22;67538;52.180;5.646;2023-03-01T06:35:54;-3.50;99.90
22249;DHT22;67538;52.180;5.646;2023-03-01T06:38:22;-3.50;99.90
22249;DHT22;67538;52.180;5.646;2023-03-01T06:40:54;-3.50;99.90
22249;DHT22;67538;52.180;5.646;2023-03-01T06:43:22;-3.40;99.90
22249;DHT22;67538;52.180;5.646;2023-03-01T06:45:49;-3.40;99.90
22249;DHT22;67538;52.180;5.646;2023-03-01T06:48:16;-3.30;99.90
22249;DHT22;67538;52.180;5.646;2023-03-01T06:50:43;-3.30;99.90
22249;DHT22;67538;52.180;5.646;2023-03-01T06:53:10;-3.30;99.90
22249;DHT22;67538;52.180;5.646;2023-03-01T06:55:37;-3.20;99.90
22249;DHT22;67538;52.180;5.646;2023-03-01T06:58:05;-3.20;99.90
22249;DHT22;67538;52.180;5.646;2023-03-01T07:00:33;-3.10;99.90
22249;DHT22;67538;52.180;5.646;2023-03-01T07:03:00;-3.10;99.90
22249;DHT22;67538;52.180;5.646;2023-03-01T07:05:29;-3.00;99.90
22249;DHT22;67538;52.180;5.646;2023-03-01T07:07:56;-2.90;99.90
22249;DHT22;67538;52.180;5.646;2023-03-01T07:10:23;-2.90;99.90
22249;DHT22;67538;52.180;5.646;2023-03-01T07:12:50;-2.80;99.90
22249;DHT22;67538;52.180;5.646;2023-03-01T07:15:22;-2.80;99.90
22249;DHT22;67538;52.180;5.646;2023-03-01T07:17:49;-2.70;99.90
22249;DHT22;67538;52.180;5.646;2023-03-01T07:20:16;-2.60;99.90
22249;DHT22;67538;52.180;5.646;2023-03-01T07:22:44;-2.50;99.90
22249;DHT22;67538;52.180;5.646;2023-03-01T07:25:11;-2.10;99.90
22249;DHT22;67538;52.180;5.646;2023-03-01T07:27:38;-0.60;99.90
22249;DHT22;67538;52.180;5.646;2023-03-01T07:30:07;2.10;99.90
22249;DHT22;67538;52.180;5.646;2023-03-01T07:32:35;6.00;99.90
22249;DHT22;67538;52.180;5.646;2023-03-01T07:35:03;9.50;99.90
22249;DHT22;67538;52.180;5.646;2023-03-01T07:37:30;11.90;99.90
22249;DHT22;67538;52.180;5.646;2023-03-01T07:39:57;13.60;99.90
22249;DHT22;67538;52.180;5.646;2023-03-01T07:42:24;14.90;99.90
22249;DHT22;67538;52.180;5.646;2023-03-01T07:44:51;15.40;99.90
22249;DHT22;67538;52.180;5.646;2023-03-01T07:47:18;14.90;99.90
22249;DHT22;67538;52.180;5.646;2023-03-01T07:49:47;15.00;99.90
22249;DHT22;67538;52.180;5.646;2023-03-01T07:52:14;16.00;99.90
22249;DHT22;67538;52.180;5.646;2023-03-01T07:54:43;17.30;99.90
22249;DHT22;67538;52.180;5.646;2023-03-01T07:57:10;18.40;98.90
22249;DHT22;67538;52.180;5.646;2023-03-01T07:59:38;19.20;97.70
22249;DHT22;67538;52.180;5.646;2023-03-01T08:02:05;19.70;96.70
22249;DHT22;67538;52.180;5.646;2023-03-01T08:04:32;20.40;95.30
22249;DHT22;67538;52.180;5.646;2023-03-01T08:07:01;20.90;94.40
22249;DHT22;67538;52.180;5.646;2023-03-01T08:09:28;21.00;93.00
22249;DHT22;67538;52.180;5.646;2023-03-01T08:11:56;21.40;91.80
22249;DHT22;67538;52.180;5.646;2023-03-01T08:14:25;21.60;91.10
22249;DHT22;67538;52.180;5.646;2023-03-01T08:16:52;20.50;91.60
22249;DHT22;67538;52.180;5.646;2023-03-01T08:19:19;20.80;91.10
22249;DHT22;67538;52.180;5.646;2023-03-01T08:21:46;20.00;91.20
22249;DHT22;67538;52.180;5.646;2023-03-01T08:24:14;18.80;92.20
22249;DHT22;67538;52.180;5.646;2023-03-01T08:26:41;18.70;92.30
22249;DHT22;67538;52.180;5.646;2023-03-01T08:29:08;19.70;91.70
22249;DHT22;67538;52.180;5.646;2023-03-01T08:31:38;20.30;91.00
22249;DHT22;67538;52.180;5.646;2023-03-01T08:34:08;20.20;90.60
22249;DHT22;67538;52.180;5.646;2023-03-01T08:36:37;19.70;90.30
22249;DHT22;67538;52.180;5.646;2023-03-01T08:39:06;20.10;90.30
22249;DHT22;67538;52.180;5.646;2023-03-01T08:41:35;20.00;90.00
22249;DHT22;67538;52.180;5.646;2023-03-01T08:44:03;20.00;90.50
22249;DHT22;67538;52.180;5.646;2023-03-01T08:46:32;19.80;90.00
22249;DHT22;67538;52.180;5.646;2023-03-01T08:48:59;19.40;90.00
22249;DHT22;67538;52.180;5.646;2023-03-01T08:51:27;19.30;90.50
22249;DHT22;67538;52.180;5.646;2023-03-01T08:53:54;19.20;90.00
22249;DHT22;67538;52.180;5.646;2023-03-01T08:56:21;18.70;90.70
22249;DHT22;67538;52.180;5.646;2023-03-01T08:58:50;18.40;90.70
22249;DHT22;67538;52.180;5.646;2023-03-01T09:01:18;18.50;90.50
22249;DHT22;67538;52.180;5.646;2023-03-01T09:03:46;18.70;90.50
22249;DHT22;67538;52.180;5.646;2023-03-01T09:06:14;17.40;90.70
22249;DHT22;67538;52.180;5.646;2023-03-01T09:08:43;17.10;91.80
22249;DHT22;67538;52.180;5.646;2023-03-01T09:11:12;19.10;90.60
22249;DHT22;67538;52.180;5.646;2023-03-01T09:13:39;19.20;90.00
22249;DHT22;67538;52.180;5.646;2023-03-01T09:16:08;18.30;90.00
22249;DHT22;67538;52.180;5.646;2023-03-01T09:18:37;17.40;90.40
22249;DHT22;67538;52.180;5.646;2023-03-01T09:21:05;16.50;91.00
22249;DHT22;67538;52.180;5.646;2023-03-01T09:23:34;14.80;92.10
22249;DHT22;67538;52.180;5.646;2023-03-01T09:26:02;13.00;93.10
22249;DHT22;67538;52.180;5.646;2023-03-01T09:28:29;11.90;94.70
22249;DHT22;67538;52.180;5.646;2023-03-01T09:30:58;11.40;96.00
22249;DHT22;67538;52.180;5.646;2023-03-01T09:33:27;12.10;94.50
22249;DHT22;67538;52.180;5.646;2023-03-01T09:35:58;11.40;95.70
22249;DHT22;67538;52.180;5.646;2023-03-01T09:38:25;10.30;96.90
22249;DHT22;67538;52.180;5.646;2023-03-01T09:40:53;10.30;97.10
22249;DHT22;67538;52.180;5.646;2023-03-01T09:43:25;10.10;98.10
22249;DHT22;67538;52.180;5.646;2023-03-01T09:45:58;9.20;98.20
22249;DHT22;67538;52.180;5.646;2023-03-01T09:48:36;8.20;99.90
22249;DHT22;67538;52.180;5.646;2023-03-01T09:51:06;7.50;99.90
22249;DHT22;67538;52.180;5.646;2023-03-01T09:53:35;6.90;99.90
22249;DHT22;67538;52.180;5.646;2023-03-01T09:56:05;6.80;99.90
22249;DHT22;67538;52.180;5.646;2023-03-01T09:58:44;6.80;99.90
22249;DHT22;67538;52.180;5.646;2023-03-01T10:01:27;6.90;99.90
22249;DHT22;67538;52.180;5.646;2023-03-01T10:04:27;7.00;99.90
22249;DHT22;67538;52.180;5.646;2023-03-01T10:07:09;6.60;99.90
22249;DHT22;67538;52.180;5.646;2023-03-01T10:09:40;6.50;99.90
22249;DHT22;67538;52.180;5.646;2023-03-01T10:12:10;6.20;99.90
22249;DHT22;67538;52.180;5.646;2023-03-01T10:14:40;6.20;99.90
22249;DHT22;67538;52.180;5.646;2023-03-01T10:17:23;6.20;99.90
22249;DHT22;67538;52.180;5.646;2023-03-01T10:19:52;6.20;99.90
22249;DHT22;67538;52.180;5.646;2023-03-01T10:22:22;6.40;99.90
22249;DHT22;67538;52.180;5.646;2023-03-01T10:24:52;6.40;99.90
22249;DHT22;67538;52.180;5.646;2023-03-01T10:27:22;6.20;99.90
22249;DHT22;67538;52.180;5.646;2023-03-01T10:29:55;6.60;99.90
22249;DHT22;67538;52.180;5.646;2023-03-01T10:32:25;6.90;99.90
22249;DHT22;67538;52.180;5.646;2023-03-01T10:34:54;6.90;99.90
22249;DHT22;67538;52.180;5.646;2023-03-01T10:37:22;6.80;99.90
22249;DHT22;67538;52.180;5.646;2023-03-01T10:39:58;6.90;99.90
22249;DHT22;67538;52.180;5.646;2023-03-01T10:42:33;7.00;99.90
22249;DHT22;67538;52.180;5.646;2023-03-01T10:45:16;7.00;99.90
22249;DHT22;67538;52.180;5.646;2023-03-01T10:47:43;6.80;99.90
22249;DHT22;67538;52.180;5.646;2023-03-01T10:50:21;6.60;99.90
22249;DHT22;67538;52.180;5.646;2023-03-01T10:52:57;6.60;99.90
22249;DHT22;67538;52.180;5.646;2023-03-01T10:55:30;6.50;99.90
22249;DHT22;67538;52.180;5.646;2023-03-01T10:58:11;6.60;99.90
22249;DHT22;67538;52.180;5.646;2023-03-01T11:00:47;6.70;99.90
22249;DHT22;67538;52.180;5.646;2023-03-01T11:03:18;6.70;99.90
22249;DHT22;67538;52.180;5.646;2023-03-01T11:05:56;6.90;99.90
22249;DHT22;67538;52.180;5.646;2023-03-01T11:08:38;7.00;99.90
22249;DHT22;67538;52.180;5.646;2023-03-01T11:11:21;7.00;99.90
22249;DHT22;67538;52.180;5.646;2023-03-01T11:13:54;7.30;99.90
22249;DHT22;67538;52.180;5.646;2023-03-01T11:16:31;7.50;99.90
22249;DHT22;67538;52.180;5.646;2023-03-01T11:21:47;7.50;99.90
22249;DHT22;67538;52.180;5.646;2023-03-01T11:24:18;7.80;99.90
22249;DHT22;67538;52.180;5.646;2023-03-01T11:26:50;8.00;99.90
22249;DHT22;67538;52.180;5.646;2023-03-01T11:29:26;8.10;99.90
22249;DHT22;67538;52.180;5.646;2023-03-01T11:31:57;8.10;99.90
22249;DHT22;67538;52.180;5.646;2023-03-01T11:34:36;8.00;99.90
22249;DHT22;67538;52.180;5.646;2023-03-01T11:37:14;7.80;99.90
22249;DHT22;67538;52.180;5.646;2023-03-01T11:39:49;7.70;99.90
22249;DHT22;67538;52.180;5.646;2023-03-01T11:42:20;7.70;99.90
22249;DHT22;67538;52.180;5.646;2023-03-01T11:44:54;7.70;99.90
22249;DHT22;67538;52.180;5.646;2023-03-01T11:47:33;7.60;99.90
22249;DHT22;67538;52.180;5.646;2023-03-01T11:50:16;7.60;99.90
22249;DHT22;67538;52.180;5.646;2023-03-01T11:52:56;7.60;99.90
22249;DHT22;67538;52.180;5.646;2023-03-01T11:55:36;7.20;99.90
22249;DHT22;67538;52.180;5.646;2023-03-01T11:58:17;7.10;99.90
22249;DHT22;67538;52.180;5.646;2023-03-01T12:01:07;7.10;99.90
22249;DHT22;67538;52.180;5.646;2023-03-01T12:03:55;7.00;99.90
22249;DHT22;67538;52.180;5.646;2023-03-01T12:06:38;7.10;99.90
22249;DHT22;67538;52.180;5.646;2023-03-01T12:09:25;7.30;99.90
22249;DHT22;67538;52.180;5.646;2023-03-01T12:12:14;7.30;99.90
22249;DHT22;67538;52.180;5.646;2023-03-01T12:15:04;7.20;99.90
22249;DHT22;67538;52.180;5.646;2023-03-01T12:18:04;7.20;99.90
22249;DHT22;67538;52.180;5.646;2023-03-01T12:20:38;7.30;99.90
22249;DHT22;67538;52.180;5.646;2023-03-01T12:23:38;7.50;99.90
22249;DHT22;67538;52.180;5.646;2023-03-01T12:26:29;7.50;99.90
22249;DHT22;67538;52.180;5.646;2023-03-01T12:29:07;7.60;99.90
22249;DHT22;67538;52.180;5.646;2023-03-01T12:31:51;7.60;99.90
22249;DHT22;67538;52.180;5.646;2023-03-01T12:34:31;7.50;99.90
22249;DHT22;67538;52.180;5.646;2023-03-01T12:37:15;7.30;99.90
22249;DHT22;67538;52.180;5.646;2023-03-01T12:39:56;7.20;99.90
22249;DHT22;67538;52.180;5.646;2023-03-01T12:42:33;7.30;99.90
22249;DHT22;67538;52.180;5.646;2023-03-01T12:45:22;7.40;99.90
22249;DHT22;67538;52.180;5.646;2023-03-01T12:48:04;7.50;99.90
22249;DHT22;67538;52.180;5.646;2023-03-01T12:50:38;7.40;99.90
22249;DHT22;67538;52.180;5.646;2023-03-01T12:53:17;7.30;99.90
22249;DHT22;67538;52.180;5.646;2023-03-01T12:55:47;7.40;99.90
22249;DHT22;67538;52.180;5.646;2023-03-01T12:58:23;7.40;99.90
22249;DHT22;67538;52.180;5.646;2023-03-01T13:01:08;7.50;99.90
22249;DHT22;67538;52.180;5.646;2023-03-01T13:04:01;7.60;99.90
22249;DHT22;67538;52.180;5.646;2023-03-01T13:06:35;7.60;99.90
22249;DHT22;67538;52.180;5.646;2023-03-01T13:09:14;7.70;99.90
22249;DHT22;67538;52.180;5.646;2023-03-01T13:11:44;7.60;99.90
22249;DHT22;67538;52.180;5.646;2023-03-01T13:14:37;7.40;99.90
22249;DHT22;67538;52.180;5.646;2023-03-01T13:17:29;7.50;99.90
22249;DHT22;67538;52.180;5.646;2023-03-01T13:19:57;7.60;99.90
22249;DHT22;67538;52.180;5.646;2023-03-01T13:22:28;7.70;99.90
22249;DHT22;67538;52.180;5.646;2023-03-01T13:25:13;7.70;99.90
22249;DHT22;67538;52.180;5.646;2023-03-01T13:27:41;7.80;99.90
22249;DHT22;67538;52.180;5.646;2023-03-01T13:30:40;7.90;99.90
22249;DHT22;67538;52.180;5.646;2023-03-01T13:33:44;7.80;99.90
22249;DHT22;67538;52.180;5.646;2023-03-01T13:36:49;7.70;99.90
22249;DHT22;67538;52.180;5.646;2023-03-01T13:39:31;7.80;99.90
22249;DHT22;67538;52.180;5.646;2023-03-01T13:42:31;7.90;99.90
22249;DHT22;67538;52.180;5.646;2023-03-01T13:44:59;7.90;99.90
22249;DHT22;67538;52.180;5.646;2023-03-01T13:47:28;8.00;99.90
22249;DHT22;67538;52.180;5.646;2023-03-01T13:49:57;8.10;99.90
22249;DHT22;67538;52.180;5.646;2023-03-01T13:52:35;8.10;99.90
22249;DHT22;67538;52.180;5.646;2023-03-01T13:55:04;8.10;99.90
22249;DHT22;67538;52.180;5.646;2023-03-01T13:57:34;7.90;99.90
22249;DHT22;67538;52.180;5.646;2023-03-01T14:00:02;7.90;99.90
22249;DHT22;67538;52.180;5.646;2023-03-01T14:02:31;8.00;99.90
22249;DHT22;67538;52.180;5.646;2023-03-01T14:05:00;8.10;99.90
22249;DHT22;67538;52.180;5.646;2023-03-01T14:07:28;8.10;99.90
22249;DHT22;67538;52.180;5.646;2023-03-01T14:09:59;8.20;99.90
22249;DHT22;67538;52.180;5.646;2023-03-01T14:12:37;8.30;99.90
22249;DHT22;67538;52.180;5.646;2023-03-01T14:15:08;8.40;99.90
22249;DHT22;67538;52.180;5.646;2023-03-01T14:17:59;8.30;99.90
22249;DHT22;67538;52.180;5.646;2023-03-01T14:20:31;8.40;99.90
22249;DHT22;67538;52.180;5.646;2023-03-01T14:23:02;8.40;99.90
22249;DHT22;67538;52.180;5.646;2023-03-01T14:25:36;8.40;99.90
22249;DHT22;67538;52.180;5.646;2023-03-01T14:28:13;8.50;99.90
22249;DHT22;67538;52.180;5.646;2023-03-01T14:30:43;8.40;99.90
22249;DHT22;67538;52.180;5.646;2023-03-01T14:33:22;8.10;99.90
22249;DHT22;67538;52.180;5.646;2023-03-01T14:35:55;8.00;99.90
22249;DHT22;67538;52.180;5.646;2023-03-01T14:38:27;7.90;99.90
22249;DHT22;67538;52.180;5.646;2023-03-01T14:40:58;7.90;99.90
22249;DHT22;67538;52.180;5.646;2023-03-01T14:43:25;7.90;99.90
22249;DHT22;67538;52.180;5.646;2023-03-01T14:45:53;7.90;99.90
22249;DHT22;67538;52.180;5.646;2023-03-01T14:48:21;7.90;99.90
22249;DHT22;67538;52.180;5.646;2023-03-01T14:50:50;7.90;99.90
22249;DHT22;67538;52.180;5.646;2023-03-01T14:53:19;7.90;99.90
22249;DHT22;67538;52.180;5.646;2023-03-01T14:55:50;7.90;99.90
22249;DHT22;67538;52.180;5.646;2023-03-01T14:58:20;7.90;99.90
22249;DHT22;67538;52.180;5.646;2023-03-01T15:00:51;7.90;99.90
22249;DHT22;67538;52.180;5.646;2023-03-01T15:03:25;7.90;99.90
22249;DHT22;67538;52.180;5.646;2023-03-01T15:05:54;7.80;99.90
22249;DHT22;67538;52.180;5.646;2023-03-01T15:08:24;7.80;99.90
22249;DHT22;67538;52.180;5.646;2023-03-01T15:10:59;7.80;99.90
22249;DHT22;67538;52.180;5.646;2023-03-01T15:13:30;7.80;99.90
22249;DHT22;67538;52.180;5.646;2023-03-01T15:16:06;7.70;99.90
22249;DHT22;67538;52.180;5.646;2023-03-01T15:18:36;7.70;99.90
22249;DHT22;67538;52.180;5.646;2023-03-01T15:21:09;7.70;99.90
22249;DHT22;67538;52.180;5.646;2023-03-01T15:23:37;7.70;99.90
22249;DHT22;67538;52.180;5.646;2023-03-01T15:26:05;7.60;99.90
22249;DHT22;67538;52.180;5.646;2023-03-01T15:28:34;7.70;99.90
22249;DHT22;67538;52.180;5.646;2023-03-01T15:31:16;7.70;99.90
22249;DHT22;67538;52.180;5.646;2023-03-01T15:33:46;7.70;99.90
22249;DHT22;67538;52.180;5.646;2023-03-01T15:36:36;7.60;99.90
22249;DHT22;67538;52.180;5.646;2023-03-01T15:39:05;7.50;99.90
22249;DHT22;67538;52.180;5.646;2023-03-01T15:41:38;7.50;99.90
22249;DHT22;67538;52.180;5.646;2023-03-01T15:44:16;7.40;99.90
22249;DHT22;67538;52.180;5.646;2023-03-01T15:46:46;7.30;99.90
22249;DHT22;67538;52.180;5.646;2023-03-01T15:49:35;7.20;99.90
22249;DHT22;67538;52.180;5.646;2023-03-01T15:52:04;7.10;99.90
22249;DHT22;67538;52.180;5.646;2023-03-01T15:54:33;7.10;99.90
22249;DHT22;67538;52.180;5.646;2023-03-01T15:57:00;7.00;99.90
22249;DHT22;67538;52.180;5.646;2023-03-01T15:59:27;7.00;99.90
22249;DHT22;67538;52.180;5.646;2023-03-01T16:01:54;6.90;99.90
22249;DHT22;67538;52.180;5.646;2023-03-01T16:04:21;6.90;99.90
22249;DHT22;67538;52.180;5.646;2023-03-01T16:06:50;6.80;99.90